Time;durP1;ratioP1;P1;durP2;ratioP2;P2;SDS_P1;SDS_P2;PMS_P1;PMS_P2;Temp;Humidity;BMP_temperature;BMP_pressure;BME280_temperature;BME280_humidity;BME280_pressure;Samples;Min_cycle;Max_cycle;Signal;HPM_P1;HPM_P2
2022/06/01 00:00:15;;;;;;;0.50;0.40;;;;;;;14.48;76.75;100668.82;1670237;85;21039;-69
2022/06/01 00:02:41;;;;;;;1.27;0.90;;;;;;;14.53;76.28;100662.86;1662079;84;21690;-71
2022/06/01 00:05:08;;;;;;;1.10;0.80;;;;;;;14.56;76.18;100657.06;1658595;85;21023;-69
2022/06/01 00:07:35;;;;;;;0.50;0.50;;;;;;;14.58;75.98;100651.84;1683795;84;21081;-69
2022/06/01 00:10:03;;;;;;;2.00;0.50;;;;;;;14.60;75.60;100650.30;1667168;84;21111;-74
2022/06/01 00:12:31;;;;;;;0.65;0.65;;;;;;;14.60;75.86;100645.75;1669053;84;21134;-70
2022/06/01 00:14:58;;;;;;;1.40;0.60;;;;;;;14.59;75.76;100652.14;1689826;83;21061;-69
2022/06/01 00:17:24;;;;;;;;;;;;;;;14.57;75.91;100650.70;1697938;84;21255;-68
2022/06/01 00:19:52;;;;;;;0.40;0.40;;;;;;;14.55;76.27;100648.72;1675824;84;20479;-69
2022/06/01 00:22:19;;;;;;;0.88;0.85;;;;;;;14.47;76.50;100649.75;1695396;83;21548;-71
2022/06/01 00:24:46;;;;;;;;;;;;;;;14.44;76.71;100648.81;1695201;84;21127;-69
2022/06/01 00:27:15;;;;;;;;;;;;;;;14.44;76.88;100652.02;1714155;83;20469;-69
2022/06/01 00:29:43;;;;;;;1.25;1.20;;;;;;;14.38;77.75;100653.67;1679705;83;20480;-69
2022/06/01 00:32:11;;;;;;;1.42;1.32;;;;;;;14.33;78.40;100654.79;1690855;83;21023;-69
2022/06/01 00:34:39;;;;;;;1.57;1.52;;;;;;;14.34;78.61;100648.41;1683347;85;21026;-69
2022/06/01 00:37:08;;;;;;;1.92;1.40;;;;;;;14.36;78.67;100651.19;1697057;84;21051;-72
2022/06/01 00:39:36;;;;;;;1.52;1.27;;;;;;;14.42;78.80;100645.52;1692222;84;21117;-69
2022/06/01 00:42:20;;;;;;;0.82;0.82;;;;;;;14.43;78.53;100654.37;1691106;84;20987;-69
2022/06/01 00:44:48;;;;;;;0.85;0.60;;;;;;;14.44;78.22;100654.17;1684630;84;21529;-69
2022/06/01 00:47:16;;;;;;;1.07;1.00;;;;;;;14.37;78.21;100646.15;1680418;84;21045;-69
2022/06/01 00:49:51;;;;;;;0.90;0.90;;;;;;;14.37;77.85;100652.00;1660136;84;21066;-69
2022/06/01 00:52:35;;;;;;;0.93;0.93;;;;;;;14.33;77.05;100654.79;1671595;85;21070;-69
2022/06/01 00:54:46;;;;;;;0.75;0.75;;;;;;;14.27;77.15;100656.44;1662837;85;21030;-70
2022/06/01 00:57:14;;;;;;;1.50;1.30;;;;;;;14.24;77.13;100653.34;1692191;83;21010;-71
2022/06/01 00:59:44;;;;;;;1.05;0.80;;;;;;;14.20;77.28;100659.12;1695777;84;21109;-68
2022/06/01 01:02:10;;;;;;;0.72;0.72;;;;;;;14.18;77.61;100661.68;1695394;84;21034;-69
2022/06/01 01:04:39;;;;;;;1.22;0.90;;;;;;;14.15;77.08;100654.06;1692655;84;21124;-69
2022/06/01 01:07:12;;;;;;;1.77;0.80;;;;;;;14.16;77.59;100660.54;1702766;83;21039;-71
2022/06/01 01:09:36;;;;;;;1.00;1.00;;;;;;;14.15;77.16;100658.91;1688367;84;21034;-70
2022/06/01 01:12:06;;;;;;;0.95;0.95;;;;;;;14.17;76.80;100657.37;1696173;83;21147;-71
2022/06/01 01:14:38;;;;;;;1.30;1.27;;;;;;;14.17;76.62;100652.83;1708107;84;21010;-70
2022/06/01 01:17:06;;;;;;;1.00;1.00;;;;;;;14.19;76.38;100658.80;1667133;85;21069;-70
2022/06/01 01:19:49;;;;;;;0.93;0.93;;;;;;;14.18;76.67;100659.85;1708497;83;21040;-70
2022/06/01 01:22:45;;;;;;;1.22;0.78;;;;;;;14.21;77.14;100664.78;1696314;84;21069;-69
2022/06/01 01:25:29;;;;;;;1.22;1.15;;;;;;;14.18;77.15;100661.19;1686966;85;21080;-70
2022/06/01 01:27:59;;;;;;;1.00;1.00;;;;;;;14.14;77.24;100660.44;1675805;85;21267;-70
2022/06/01 01:30:40;;;;;;;1.25;0.72;;;;;;;14.14;76.88;100662.59;1692670;84;21064;-70
2022/06/01 01:33:14;;;;;;;2.92;1.02;;;;;;;14.15;76.47;100658.91;1681119;83;21565;-70
2022/06/01 01:35:48;;;;;;;1.25;0.88;;;;;;;14.15;76.58;100660.25;1702451;83;21090;-71
2022/06/01 01:38:19;;;;;;;0.95;0.95;;;;;;;14.15;75.50;100657.56;1714684;83;21015;-69
2022/06/01 01:40:46;;;;;;;0.70;0.68;;;;;;;14.18;74.39;100657.66;1712408;83;21076;-70
2022/06/01 01:43:12;;;;;;;0.80;0.42;;;;;;;14.21;73.00;100657.27;1703444;83;21112;-70
2022/06/01 01:45:38;;;;;;;1.05;0.80;;;;;;;14.24;72.83;100660.89;1710542;83;21050;-71
2022/06/01 01:48:06;;;;;;;0.78;0.53;;;;;;;14.26;73.29;100659.31;1707253;83;21049;-69
2022/06/01 01:50:33;;;;;;;2.50;1.07;;;;;;;14.24;71.78;100658.20;1703394;83;21039;-69
2022/06/01 01:52:59;;;;;;;1.50;1.05;;;;;;;14.21;74.80;100659.42;1707720;83;21097;-70
2022/06/01 01:55:38;;;;;;;;;;;;;;;14.14;76.14;100651.88;1689787;83;21089;-71
2022/06/01 01:58:26;;;;;;;2.12;1.82;;;;;;;14.10;76.89;100656.00;1699017;83;20148;-70
2022/06/01 02:01:00;;;;;;;;;;;;;;;13.99;77.83;100659.28;1714132;83;21646;-69
2022/06/01 02:03:48;;;;;;;1.42;1.32;;;;;;;13.92;78.16;100659.28;1709327;83;20138;-69
2022/06/01 02:06:23;;;;;;;1.77;1.12;;;;;;;13.78;78.44;100655.72;1711011;83;21046;-69
2022/06/01 02:09:07;;;;;;;1.72;1.57;;;;;;;13.74;78.67;100659.02;1690144;84;21098;-70
2022/06/01 02:14:37;;;;;;;1.25;1.15;;;;;;;13.71;78.62;100650.03;1694227;83;21069;-69
2022/06/01 02:17:14;;;;;;;3.83;0.80;;;;;;;13.73;77.99;100648.82;1675114;84;21015;-69
2022/06/01 02:20:04;;;;;;;0.80;0.60;;;;;;;13.78;77.27;100645.52;1696264;84;21154;-69
2022/06/01 02:22:34;;;;;;;1.42;1.35;;;;;;;13.87;76.41;100648.86;1713894;83;21022;-71
2022/06/01 02:25:01;;;;;;;1.27;1.02;;;;;;;13.93;76.26;100652.88;1687371;83;21006;-68
2022/06/01 02:27:29;;;;;;;1.52;1.42;;;;;;;13.98;76.13;100650.42;1679332;84;21038;-68
2022/06/01 02:30:18;;;;;;;1.40;1.30;;;;;;;14.06;76.22;100652.61;1693523;84;21127;-69
2022/06/01 02:32:46;;;;;;;1.90;1.80;;;;;;;14.10;76.57;100650.64;1677241;83;21105;-69
2022/06/01 02:35:18;;;;;;;1.10;1.10;;;;;;;14.10;77.04;100646.62;1698094;83;20985;-69
2022/06/01 02:37:50;;;;;;;2.35;1.27;;;;;;;14.13;77.19;100649.42;1698956;84;21057;-68
2022/06/01 02:40:21;;;;;;;1.00;0.90;;;;;;;14.16;76.94;100647.13;1687196;83;21077;-70
2022/06/01 02:42:50;;;;;;;1.02;0.90;;;;;;;14.22;75.71;100648.17;1704550;84;20983;-71
2022/06/01 02:45:23;;;;;;;0.72;0.72;;;;;;;14.28;74.74;100647.87;1703099;84;21017;-70
2022/06/01 02:47:54;;;;;;;0.88;0.88;;;;;;;14.35;73.42;100647.36;1692068;84;21133;-69
2022/06/01 02:50:26;;;;;;;1.40;0.88;;;;;;;14.46;72.01;100649.95;1655256;84;21030;-70
2022/06/01 02:52:53;;;;;;;0.95;0.65;;;;;;;14.55;70.86;100644.17;1677511;85;21543;-70
2022/06/01 02:55:21;;;;;;;0.50;0.50;;;;;;;14.67;70.52;100651.63;1692569;83;21580;-70
2022/06/01 02:57:50;;;;;;;0.70;0.70;;;;;;;14.76;70.21;100641.80;1668850;85;20999;-70
2022/06/01 03:00:30;;;;;;;0.65;0.65;;;;;;;14.89;68.90;100646.33;1660358;85;21102;-70
2022/06/01 03:02:59;;;;;;;1.17;0.60;;;;;;;15.01;69.11;100649.72;1691133;84;21152;-70
2022/06/01 03:05:33;;;;;;;1.25;0.85;;;;;;;15.06;68.92;100651.27;1679922;83;21078;-72
2022/06/01 03:08:01;;;;;;;1.12;0.50;;;;;;;15.11;68.71;100653.63;1681723;85;21007;-71
2022/06/01 03:10:28;;;;;;;0.93;0.93;;;;;;;15.28;69.17;100657.20;1695289;83;21545;-70
2022/06/01 03:12:57;;;;;;;0.62;0.60;;;;;;;15.49;68.81;100648.84;1703375;83;21077;-70
2022/06/01 03:15:26;;;;;;;0.80;0.80;;;;;;;15.68;68.30;100652.48;1686633;83;21062;-70
2022/06/01 03:17:53;;;;;;;1.10;0.70;;;;;;;15.78;67.06;100652.04;1691716;83;21092;-70
2022/06/01 03:20:24;;;;;;;5.80;0.80;;;;;;;15.80;66.38;100658.55;1705593;83;21106;-70
2022/06/01 03:22:51;;;;;;;0.80;0.40;;;;;;;15.80;66.38;100658.55;1710629;83;21008;-71
2022/06/01 03:25:22;;;;;;;1.12;0.80;;;;;;;15.74;65.96;100651.64;1705623;83;21679;-70
2022/06/01 03:27:53;;;;;;;0.80;0.80;;;;;;;15.68;66.27;100648.98;1696495;83;21073;-70
2022/06/01 03:30:21;;;;;;;1.77;0.82;;;;;;;15.63;66.15;100650.95;1710980;84;21528;-71
2022/06/01 03:32:48;;;;;;;2.08;0.75;;;;;;;15.54;65.89;100657.10;1709557;84;20986;-71
2022/06/01 03:35:18;;;;;;;2.37;1.32;;;;;;;15.46;66.91;100656.50;1712403;83;21026;-69
2022/06/01 03:37:44;;;;;;;1.62;1.52;;;;;;;15.46;66.91;100656.50;1710516;83;21627;-69
2022/06/01 03:40:13;;;;;;;2.37;1.10;;;;;;;15.52;67.90;100650.27;1688634;85;21535;-71
2022/06/01 03:42:39;;;;;;;2.33;1.07;;;;;;;15.52;67.90;100650.27;1672286;84;20988;-71
2022/06/01 03:47:55;;;;;;;1.52;0.85;;;;;;;15.47;66.44;100643.39;1624020;87;21534;-70
2022/06/01 03:50:26;;;;;;;0.72;0.70;;;;;;;15.72;65.32;100634.88;1678218;84;21121;-75
2022/06/01 03:52:53;;;;;;;2.30;1.20;;;;;;;15.72;65.32;100634.88;1675282;84;21127;-69
2022/06/01 03:55:21;;;;;;;0.88;0.88;;;;;;;15.87;64.83;100633.81;1674994;84;21069;-69
2022/06/01 03:57:50;;;;;;;3.25;1.07;;;;;;;15.95;64.38;100639.77;1674982;84;21040;-71
2022/06/01 04:00:21;;;;;;;1.20;1.10;;;;;;;15.99;64.11;100634.75;1678516;84;21057;-70
2022/06/01 04:02:49;;;;;;;3.58;1.25;;;;;;;15.97;64.08;100636.83;1709648;83;20998;-70
2022/06/01 04:05:19;;;;;;;2.20;0.60;;;;;;;15.96;64.83;100636.55;1682427;84;21104;-70
2022/06/01 04:07:45;;;;;;;0.70;0.70;;;;;;;15.99;63.92;100636.09;1683463;84;21021;-70
2022/06/01 04:10:12;;;;;;;3.22;0.85;;;;;;;15.98;64.14;100633.13;1681391;84;21152;-74
2022/06/01 04:12:41;;;;;;;3.02;0.70;;;;;;;15.98;63.94;100623.71;1681672;84;20990;-70
2022/06/01 04:15:11;;;;;;;0.88;0.88;;;;;;;16.03;64.03;100628.42;1679515;84;21065;-71
2022/06/01 04:17:37;;;;;;;;;;;;;;;16.19;64.13;100625.74;1691316;84;21509;-71
2022/06/01 04:20:06;;;;;;;1.07;0.98;;;;;;;16.39;63.91;100628.26;1684615;84;20143;-71
2022/06/01 04:22:33;;;;;;;0.55;0.55;;;;;;;16.64;63.37;100625.58;1665686;84;21029;-71
2022/06/01 04:24:59;;;;;;;1.57;0.47;;;;;;;17.27;63.12;100625.86;1671399;84;21038;-72
2022/06/01 04:27:26;;;;;;;1.65;0.82;;;;;;;18.09;58.56;100624.06;1672112;84;21173;-71
2022/06/01 04:29:52;;;;;;;0.70;0.42;;;;;;;18.79;55.90;100626.53;1671908;84;21564;-71
2022/06/01 04:32:28;;;;;;;2.35;0.45;;;;;;;19.37;53.72;100626.17;1672076;84;21181;-70
2022/06/01 04:34:54;;;;;;;2.40;0.60;;;;;;;19.95;52.01;100622.44;1672148;84;21058;-69
2022/06/01 04:37:20;;;;;;;;;;;;;;;20.46;50.73;100609.47;1675020;84;21011;-69
2022/06/01 04:39:46;;;;;;;1.50;0.40;;;;;;;20.80;50.07;100613.78;1672111;84;20133;-71
2022/06/01 04:42:12;;;;;;;;;;;;;;;21.24;49.24;100618.95;1673602;84;21018;-70
2022/06/01 04:44:40;;;;;;;0.93;0.50;;;;;;;21.31;47.28;100617.69;1664644;84;20167;-73
2022/06/01 04:47:08;;;;;;;1.10;0.50;;;;;;;21.17;47.13;100612.35;1670124;85;21762;-69
2022/06/01 04:49:34;;;;;;;0.62;0.20;;;;;;;21.16;47.73;100613.44;1666650;85;21054;-71
2022/06/01 04:52:00;;;;;;;1.98;0.45;;;;;;;21.52;47.39;100613.34;1666347;85;21082;-70
2022/06/01 04:54:27;;;;;;;0.85;0.55;;;;;;;22.16;47.31;100613.14;1666096;85;21039;-75
2022/06/01 04:56:53;;;;;;;0.42;0.40;;;;;;;22.73;44.86;100611.16;1672758;84;21078;-70
2022/06/01 04:59:20;;;;;;;2.70;0.40;;;;;;;23.00;43.70;100603.92;1663746;84;21163;-72
2022/06/01 05:01:47;;;;;;;2.00;0.45;;;;;;;23.14;42.99;100601.05;1687841;84;21097;-70
2022/06/01 05:04:14;;;;;;;0.40;0.40;;;;;;;22.92;43.24;100603.89;1696850;84;21142;-70
2022/06/01 05:06:40;;;;;;;0.60;0.30;;;;;;;22.68;43.92;100601.61;1691747;84;21561;-71
2022/06/01 05:09:07;;;;;;;0.40;0.37;;;;;;;22.36;44.55;100605.74;1694264;83;21054;-70
2022/06/01 05:11:35;;;;;;;0.40;0.40;;;;;;;22.21;45.18;100603.69;1697929;83;21509;-80
2022/06/01 05:14:01;;;;;;;1.30;0.35;;;;;;;22.12;45.34;100597.09;1710838;83;21094;-70
2022/06/01 05:18:35;;;;;;;1.55;0.50;;;;;;;22.54;45.75;100592.27;1788736;79;22653;-73
2022/06/01 05:21:01;;;;;;;;;;;;;;;22.84;44.89;100597.06;1776589;80;21554;-73
2022/06/01 05:23:28;;;;;;;0.50;0.47;;;;;;;23.24;44.62;100590.73;1749028;80;20201;-71
2022/06/01 05:25:55;;;;;;;3.47;0.70;;;;;;;23.42;43.82;100588.90;1731642;82;20994;-72
2022/06/01 05:28:27;;;;;;;0.55;0.50;;;;;;;23.38;43.70;100591.88;1718876;82;21085;-71
2022/06/01 05:31:05;;;;;;;2.05;0.45;;;;;;;23.32;44.06;100591.60;1733546;82;21021;-73
2022/06/01 05:33:32;;;;;;;1.17;0.72;;;;;;;23.39;43.49;100587.25;1720802;82;21173;-70
2022/06/01 05:35:59;;;;;;;1.05;0.60;;;;;;;23.03;44.41;100546.32;1676120;84;21212;-73
2022/06/01 05:38:25;;;;;;;1.17;0.70;;;;;;;23.42;44.01;100590.26;1659187;86;21049;-69
2022/06/01 05:40:52;;;;;;;0.98;0.50;;;;;;;23.43;44.21;100585.11;1656654;86;21084;-72
2022/06/01 05:43:21;;;;;;;2.42;0.82;;;;;;;23.02;45.23;100584.93;1638601;85;21595;-71
2022/06/01 05:45:48;;;;;;;0.75;0.57;;;;;;;22.60;46.65;100574.91;1660156;84;21042;-72
2022/06/01 05:48:18;;;;;;;1.85;1.40;;;;;;;22.33;47.55;100582.63;1666687;85;21093;-71
2022/06/01 05:50:44;;;;;;;2.60;1.25;;;;;;;22.24;48.25;100585.50;1661477;85;21604;-70
2022/06/01 05:53:11;;;;;;;2.15;0.60;;;;;;;22.12;48.36;100587.05;1671177;85;21486;-71
2022/06/01 05:55:39;;;;;;;1.00;1.00;;;;;;;22.06;49.06;100585.38;1679775;85;21621;-75
2022/06/01 05:58:23;;;;;;;1.60;1.00;;;;;;;22.26;48.42;100587.45;1642833;85;21037;-70
2022/06/01 06:00:51;;;;;;;1.40;0.68;;;;;;;22.44;48.02;100583.52;1655288;85;21579;-73
2022/06/01 06:03:19;;;;;;;0.70;0.68;;;;;;;22.60;47.81;100584.97;1652719;85;21090;-76
2022/06/01 06:08:31;;;;;;;1.30;0.80;;;;;;;23.05;47.92;100588.48;1639466;86;21042;-76
2022/06/01 06:10:58;;;;;;;4.20;0.90;;;;;;;23.44;46.37;100588.09;1662342;85;21060;-71
2022/06/01 06:13:24;;;;;;;1.65;1.07;;;;;;;23.87;45.61;100587.92;1667610;84;21096;-70
2022/06/01 06:15:51;;;;;;;1.05;1.05;;;;;;;24.19;44.55;100592.30;1659523;84;21175;-70
2022/06/01 06:18:17;;;;;;;2.35;1.07;;;;;;;24.42;43.75;100586.81;1661433;85;21609;-72
2022/06/01 06:20:45;;;;;;;2.55;1.02;;;;;;;24.56;44.22;100582.44;1648751;85;21678;-70
2022/06/01 06:23:13;;;;;;;1.82;1.07;;;;;;;24.81;43.92;100575.31;1664640;84;21126;-71
2022/06/01 06:25:40;;;;;;;1.50;1.22;;;;;;;24.72;43.48;100576.42;1710625;83;21049;-72
2022/06/01 06:28:06;;;;;;;1.00;0.98;;;;;;;24.32;44.44;100580.84;1707261;83;21034;-73
2022/06/01 06:30:32;;;;;;;3.05;1.10;;;;;;;24.28;45.81;100577.84;1684752;83;21057;-72
2022/06/01 06:32:59;;;;;;;1.15;0.88;;;;;;;24.50;44.81;100568.53;1700746;83;21146;-76
2022/06/01 06:35:25;;;;;;;4.00;1.17;;;;;;;24.45;45.40;100571.30;1709579;83;21565;-73
2022/06/01 06:37:51;;;;;;;2.42;1.57;;;;;;;24.41;45.00;100570.19;1703224;83;21157;-74
2022/06/01 06:40:19;;;;;;;1.25;1.15;;;;;;;24.31;45.28;100566.13;1702775;83;21003;-71
2022/06/01 06:42:45;;;;;;;1.42;1.00;;;;;;;24.31;45.62;100566.94;1623519;86;21057;-73
2022/06/01 06:45:12;;;;;;;1.27;1.05;;;;;;;24.39;46.87;100559.59;1652257;86;21390;-71
2022/06/01 06:47:40;;;;;;;0.80;0.80;;;;;;;24.51;45.74;100563.92;1681134;85;21137;-73
2022/06/01 06:50:10;;;;;;;1.98;0.90;;;;;;;24.50;46.01;100563.09;1664798;85;21109;-73
2022/06/01 06:52:36;;;;;;;2.22;1.55;;;;;;;24.49;45.98;100560.11;1659807;86;21182;-73
2022/06/01 06:55:04;;;;;;;1.15;1.15;;;;;;;24.47;45.78;100556.30;1716920;83;21034;-73
2022/06/01 06:57:31;;;;;;;1.90;1.15;;;;;;;24.52;46.41;100562.84;1697205;83;21553;-72
2022/06/01 06:59:56;;;;;;;1.27;1.00;;;;;;;24.49;45.50;100562.83;1707213;83;21046;-75
2022/06/01 07:02:23;;;;;;;3.00;1.35;;;;;;;24.26;46.64;100566.94;1674205;83;21050;-75
2022/06/01 07:04:50;;;;;;;1.02;0.93;;;;;;;24.20;46.80;100568.84;1668018;84;21003;-72
2022/06/01 07:07:18;;;;;;;3.05;1.20;;;;;;;24.15;47.01;100567.52;1659801;84;21058;-71
2022/06/01 07:09:44;;;;;;;2.72;0.93;;;;;;;24.21;47.15;100562.33;1696561;84;21038;-77
2022/06/01 07:12:10;;;;;;;2.60;1.35;;;;;;;24.25;47.02;100558.51;1696558;84;21070;-70
2022/06/01 07:14:38;;;;;;;4.15;1.60;;;;;;;24.12;47.57;100558.52;1688772;84;21113;-71
2022/06/01 07:17:06;;;;;;;1.57;1.17;;;;;;;24.04;47.52;100557.16;1684823;84;21113;-71
2022/06/01 07:19:34;;;;;;;2.12;1.95;;;;;;;24.17;47.92;100559.88;1688102;84;21137;-70
2022/06/01 07:22:00;;;;;;;1.55;1.45;;;;;;;24.36;47.22;100549.23;1667831;84;21281;-71
2022/06/01 07:24:25;;;;;;;5.15;1.65;;;;;;;24.38;47.14;100544.88;1714899;82;21085;-73
2022/06/01 07:26:51;;;;;;;2.17;1.52;;;;;;;24.40;47.61;100546.77;1708170;83;20985;-74
2022/06/01 07:29:19;;;;;;;1.75;1.65;;;;;;;24.51;47.31;100547.58;1709296;83;21538;-73
2022/06/01 07:31:48;;;;;;;1.77;1.60;;;;;;;24.39;47.14;100544.61;1711322;83;21634;-72
2022/06/01 07:34:14;;;;;;;2.70;1.40;;;;;;;24.31;48.15;100538.34;1675057;83;21152;-70
2022/06/01 07:36:41;;;;;;;2.40;1.20;;;;;;;24.38;48.27;100533.42;1675518;84;21000;-71
2022/06/01 07:44:49;;;;;;;3.40;1.70;;;;;;;24.13;48.61;100541.10;1663860;84;21406;-71
2022/06/01 07:47:17;;;;;;;2.05;1.87;;;;;;;23.93;49.84;100535.66;1658867;85;21106;-72
2022/06/01 07:49:44;;;;;;;2.42;2.22;;;;;;;23.85;49.93;100543.28;1703022;83;21061;-71
2022/06/01 07:52:12;;;;;;;2.65;2.30;;;;;;;23.86;50.10;100544.09;1692196;83;21040;-72
2022/06/01 07:54:41;;;;;;;3.60;2.02;;;;;;;23.82;50.09;100541.09;1683051;83;21066;-70
2022/06/01 07:57:09;;;;;;;3.65;1.98;;;;;;;23.71;50.58;100547.06;1682288;84;21038;-74
2022/06/01 07:59:35;;;;;;;2.25;1.98;;;;;;;23.69;50.73;100536.97;1671370;83;21287;-70
2022/06/01 08:02:06;;;;;;;1.90;1.80;;;;;;;23.71;51.58;100538.06;1672934;83;20982;-72
2022/06/01 08:04:32;;;;;;;4.37;1.92;;;;;;;23.76;51.55;100538.63;1664585;83;21046;-73
2022/06/01 08:06:58;;;;;;;4.05;2.02;;;;;;;23.82;51.39;100539.73;1673156;83;21086;-78
2022/06/01 08:09:25;;;;;;;2.33;1.57;;;;;;;23.93;51.41;100530.22;1674873;83;21073;-70
2022/06/01 08:14:36;;;;;;;2.33;2.12;;;;;;;23.98;51.63;100516.59;1683858;84;21096;-71
2022/06/01 08:17:03;;;;;;;2.40;2.00;;;;;;;23.94;51.67;100516.34;1678402;83;21029;-77
2022/06/01 08:19:30;;;;;;;2.72;2.50;;;;;;;23.97;52.12;100521.77;1682579;84;21076;-73
2022/06/01 08:21:56;;;;;;;5.85;2.33;;;;;;;23.99;51.60;100508.70;1686978;83;21095;-71
2022/06/01 08:24:22;;;;;;;4.20;1.80;;;;;;;23.94;52.50;100510.90;1664840;85;21165;-71
2022/06/01 08:26:50;;;;;;;5.75;2.40;;;;;;;23.98;52.28;100509.78;1663738;85;21219;-72
2022/06/01 08:29:16;;;;;;;6.47;3.05;;;;;;;24.04;52.04;100512.23;1664726;84;21049;-73
2022/06/01 08:31:43;;;;;;;5.00;3.20;;;;;;;24.11;51.55;100503.80;1666010;85;21097;-72
2022/06/01 08:34:15;;;;;;;4.35;2.77;;;;;;;24.13;51.29;100500.25;1683593;82;21106;-72
2022/06/01 08:36:38;;;;;;;2.62;2.40;;;;;;;24.10;51.54;100506.23;1715018;82;21006;-72
2022/06/01 08:39:05;;;;;;;3.12;2.08;;;;;;;24.13;51.59;100504.34;1703353;82;21042;-73
2022/06/01 08:41:35;;;;;;;12.45;2.65;;;;;;;24.17;51.75;100494.52;1718197;82;21026;-73
2022/06/01 08:44:27;;;;;;;3.10;2.22;;;;;;;24.26;52.25;100493.39;1714660;82;21453;-72
2022/06/01 08:47:00;;;;;;;2.87;2.67;;;;;;;24.32;52.05;100498.28;1716400;82;21545;-72
2022/06/01 08:49:30;;;;;;;5.60;3.45;;;;;;;24.26;51.96;100502.41;1715451;82;21070;-71
2022/06/01 08:51:57;;;;;;;3.83;3.08;;;;;;;24.28;51.88;100504.86;1719728;82;21101;-71
2022/06/01 08:54:24;;;;;;;4.12;3.47;;;;;;;24.34;51.38;100500.22;1719431;82;21094;-73
2022/06/01 08:57:01;;;;;;;6.62;2.85;;;;;;;24.37;51.01;100495.55;1719373;82;21113;-72
2022/06/01 08:59:36;;;;;;;5.25;2.83;;;;;;;24.38;50.83;100494.48;1713561;82;21663;-70
2022/06/01 09:02:44;;;;;;;5.17;2.60;;;;;;;24.43;50.82;100502.09;1687563;83;21300;-76
2022/06/01 09:05:39;;;;;;;2.50;2.40;;;;;;;24.46;51.36;100502.07;1678906;83;21110;-71
2022/06/01 09:08:28;;;;;;;3.25;2.95;;;;;;;24.44;50.89;100496.89;1671417;83;21570;-73
2022/06/01 09:11:10;;;;;;;3.55;2.58;;;;;;;23.81;50.71;100419.72;1690246;85;21034;-75
2022/06/01 09:14:04;;;;;;;2.98;2.62;;;;;;;24.15;51.00;100495.34;1688212;83;20999;-72
2022/06/01 09:16:41;;;;;;;3.12;2.77;;;;;;;24.14;52.16;100499.14;1690715;83;21089;-75
2022/06/01 09:19:17;;;;;;;2.17;1.98;;;;;;;24.20;52.06;100495.87;1682860;83;21577;-75
2022/06/01 09:24:48;;;;;;;2.30;2.10;;;;;;;24.24;51.17;100490.97;1690214;84;21065;-72
2022/06/01 09:27:16;;;;;;;3.37;2.52;;;;;;;24.35;50.76;100495.02;1691762;83;21017;-72
2022/06/01 09:29:47;;;;;;;2.05;1.42;;;;;;;24.45;50.28;100496.38;1682969;84;21062;-73
2022/06/01 09:32:28;;;;;;;2.70;2.00;;;;;;;24.56;50.38;100487.63;1683925;84;21002;-70
2022/06/01 09:34:59;;;;;;;6.15;2.77;;;;;;;24.68;50.27;100484.85;1665075;84;21498;-75
2022/06/01 09:37:31;;;;;;;4.85;2.50;;;;;;;24.84;49.81;100485.59;1673331;84;21246;-75
2022/06/01 09:40:09;;;;;;;2.00;1.87;;;;;;;24.95;49.59;100488.28;1670205;84;21033;-72
2022/06/01 09:42:40;;;;;;;1.87;1.77;;;;;;;24.97;49.07;100494.27;1629777;85;21070;-78
2022/06/01 09:45:40;;;;;;;3.33;3.02;;;;;;;24.94;48.97;100482.02;1671714;83;21520;-73
2022/06/01 09:48:16;;;;;;;4.25;2.30;;;;;;;25.02;48.83;100475.97;1683626;84;21137;-73
2022/06/01 09:50:45;;;;;;;2.33;2.12;;;;;;;25.11;48.04;100479.45;1687385;84;21080;-72
2022/06/01 09:53:17;;;;;;;1.87;1.77;;;;;;;25.10;48.20;100476.47;1680473;83;21068;-73
2022/06/01 09:55:58;;;;;;;2.33;1.90;;;;;;;25.10;48.02;100475.91;1681178;82;21530;-73
2022/06/01 10:07:28;;;;;;;4.08;1.70;;;;;;;24.93;48.22;100460.48;1710924;82;21014;-72
2022/06/01 10:10:01;;;;;;;1.65;1.45;;;;;;;24.91;48.10;100454.50;1714308;82;20991;-72
2022/06/01 10:12:47;;;;;;;2.67;2.47;;;;;;;24.95;48.46;100455.00;1702003;83;21089;-72
2022/06/01 10:15:33;;;;;;;2.70;1.20;;;;;;;25.00;48.14;100465.89;1714086;83;21082;-70
2022/06/01 10:18:19;;;;;;;1.32;1.22;;;;;;;25.05;47.84;100460.41;1722427;82;21085;-72
2022/06/01 10:20:56;;;;;;;1.47;1.37;;;;;;;25.14;47.04;100459.25;1715658;82;21519;-72
2022/06/01 10:23:34;;;;;;;2.37;1.70;;;;;;;25.20;47.02;100454.57;1719804;82;21579;-71
2022/06/01 10:26:17;;;;;;;3.98;1.57;;;;;;;25.25;46.86;100455.94;1723630;82;21577;-71
2022/06/01 10:28:48;;;;;;;2.22;1.47;;;;;;;25.29;46.70;100443.91;1722722;83;21636;-72
2022/06/01 10:31:24;;;;;;;3.50;1.45;;;;;;;25.27;46.98;100453.74;1724327;82;21533;-70
2022/06/01 10:34:00;;;;;;;;;;;;;;;25.30;46.91;100447.73;1716772;82;21513;-73
2022/06/01 10:36:44;;;;;;;3.47;1.00;;;;;;;25.34;46.98;100447.42;1691482;83;20135;-72
2022/06/01 10:39:21;;;;;;;6.28;1.20;;;;;;;25.40;47.12;100444.10;1702729;83;21046;-71
2022/06/01 10:42:16;;;;;;;1.42;1.32;;;;;;;25.49;45.92;100442.39;1682010;83;21027;-72
2022/06/01 10:45:01;;;;;;;1.85;1.17;;;;;;;25.54;45.75;100443.72;1670960;83;20967;-70
2022/06/01 10:47:57;;;;;;;1.77;0.68;;;;;;;25.53;44.42;100442.64;1690092;83;21015;-72
2022/06/01 10:50:29;;;;;;;5.60;1.30;;;;;;;25.56;44.67;100431.13;1675467;83;21015;-71
2022/06/01 10:53:18;;;;;;;2.37;1.00;;;;;;;25.60;44.93;100430.85;1681062;84;21014;-74
2022/06/01 10:55:45;;;;;;;1.40;1.30;;;;;;;25.70;44.97;100421.19;1674218;83;21077;-72
2022/06/01 10:58:21;;;;;;;2.37;1.22;;;;;;;25.87;44.47;100415.84;1692245;83;21065;-73
2022/06/01 11:01:16;;;;;;;4.50;1.22;;;;;;;25.97;44.08;100417.13;1694197;83;21145;-71
2022/06/01 11:04:19;;;;;;;4.17;1.00;;;;;;;26.06;44.04;100419.48;1691868;83;21030;-71
2022/06/01 11:07:17;;;;;;;4.65;1.10;;;;;;;26.02;43.52;100412.98;1712958;83;21078;-70
2022/06/01 11:10:16;;;;;;;1.10;1.00;;;;;;;26.02;43.81;100404.78;1659928;85;21117;-73
2022/06/01 11:13:27;;;;;;;1.35;0.90;;;;;;;26.01;44.19;100400.42;1689172;82;21549;-74
2022/06/01 11:16:21;;;;;;;2.52;0.90;;;;;;;25.93;43.97;100407.89;1744277;82;21054;-73
2022/06/01 11:19:05;;;;;;;1.62;0.90;;;;;;;25.73;43.67;100401.52;1724719;82;21092;-74
2022/06/01 11:21:40;;;;;;;2.35;0.75;;;;;;;25.61;43.84;100396.98;1723082;82;21112;-72
2022/06/01 11:24:38;;;;;;;2.55;0.95;;;;;;;25.57;44.22;100398.10;1700940;84;21042;-73
2022/06/01 11:27:19;;;;;;;1.17;0.95;;;;;;;25.63;43.35;100398.87;1685445;83;21077;-71
2022/06/01 11:29:55;;;;;;;2.05;1.50;;;;;;;25.66;43.98;100392.04;1682512;83;21578;-75
2022/06/01 11:32:48;;;;;;;1.65;0.93;;;;;;;25.64;44.16;100392.32;1702535;83;21159;-71
2022/06/01 11:35:38;;;;;;;1.12;0.78;;;;;;;25.67;43.99;100392.28;1700822;83;21153;-74
2022/06/01 11:38:21;;;;;;;1.80;1.60;;;;;;;25.63;43.99;100394.77;1707698;83;21566;-71
2022/06/01 11:41:05;;;;;;;7.55;1.75;;;;;;;25.61;44.44;100390.96;1686003;83;21132;-72
2022/06/01 11:43:41;;;;;;;3.02;1.57;;;;;;;25.59;45.02;100397.26;1701138;83;21155;-73
2022/06/01 11:46:15;;;;;;;2.55;1.42;;;;;;;25.58;44.59;100396.18;1709944;83;21010;-74
2022/06/01 11:48:53;;;;;;;1.25;1.12;;;;;;;25.61;44.56;100388.80;1705772;83;21178;-73
2022/06/01 11:51:41;;;;;;;2.15;1.32;;;;;;;25.68;44.33;100384.38;1719103;83;21066;-74
2022/06/01 11:54:17;;;;;;;1.67;1.47;;;;;;;25.73;44.43;100386.50;1686379;83;21113;-72
2022/06/01 11:56:55;;;;;;;2.15;1.47;;;;;;;25.81;44.23;100388.59;1634491;85;21059;-81
2022/06/01 11:59:41;;;;;;;1.32;1.22;;;;;;;25.83;43.99;100385.58;1621015;86;21188;-72
2022/06/01 12:02:41;;;;;;;1.30;1.17;;;;;;;25.79;44.46;100383.97;1661284;85;20995;-72
2022/06/01 12:05:16;;;;;;;2.17;1.05;;;;;;;25.73;44.40;100379.68;1660158;85;21068;-71
2022/06/01 12:07:52;;;;;;;2.20;1.20;;;;;;;25.69;44.33;100381.33;1683575;84;21134;-73
2022/06/01 12:10:27;;;;;;;2.12;1.00;;;;;;;25.67;43.72;100379.45;1682337;84;21698;-72
2022/06/01 12:13:26;;;;;;;2.98;0.62;;;;;;;25.70;42.51;100376.70;1662981;85;21072;-74
2022/06/01 12:16:18;;;;;;;0.80;0.80;;;;;;;25.72;42.25;100371.77;1643686;84;21109;-70
2022/06/01 12:19:11;;;;;;;1.05;1.05;;;;;;;25.76;42.42;100370.08;1652350;84;21568;-72
2022/06/01 12:21:54;;;;;;;4.08;1.22;;;;;;;25.79;42.81;100369.52;1667470;84;21134;-72